KHUL/HUL METAR and TAF weather

Enter ICAO airport designator
Station Type Date Time Source
KHUL METAR 2021/08/05 02:53 UTC NOAA

KHUL 050253Z AUTO VRB03KT 10SM CLR 20/16 A3020 RMK AO2 SLP224 T02000161 51011


Station Type Date Time Source
KHUL Decoded METAR 2021/08/05 02:53 UTC NOAA

HOULTON INT'L AIRPORT, ME, United States (KHUL) 46-07N 067-48W 150M
Aug 04, 2021 - 10:53 PM EDT / 2021.08.05 0253 UTC
Wind: Variable at 3 MPH (3 KT):0
Visibility: 10 mile(s):0
Sky conditions: clear
Temperature: 68.0 F (20.0 C)
Dew Point: 61.0 F (16.1 C)
Relative Humidity: 78%
Pressure (altimeter): 30.2 in. Hg (1022 hPa)
Pressure tendency: 0.03 inches (1.1 hPa) higher than three hours ago
ob: KHUL 050253Z AUTO VRB03KT 10SM CLR 20/16 A3020 RMK AO2 SLP224 T02000161 51011
cycle: 3

Station Type Date Time Source
KHUL TAF 2021/08/04 18:22 UTC NOAA

TAF KHUL 041720Z 0418/0518 24004KT P6SM BKN250
FM050500 19005KT P6SM FEW006
FM051100 17005KT P6SM VCSH BKN015
FM051400 15005KT 3SM -RA BR SCT006 OVC010

Example: see airport list